createdAt,value
2019-03-22T00:00:05.003Z,102626.16
2019-03-22T00:04:59.540Z,102624.86
2019-03-22T00:09:54.213Z,102618.27
2019-03-22T00:14:48.689Z,102617.25
2019-03-22T00:19:43.290Z,102613.73
2019-03-22T00:24:37.642Z,102616.41
2019-03-22T00:29:32.006Z,102619.08
2019-03-22T00:34:26.822Z,102621.00
2019-03-22T00:39:22.227Z,102594.08
2019-03-22T00:44:16.711Z,102614.22
2019-03-22T00:49:11.235Z,102613.05
2019-03-22T00:54:05.431Z,102619.47
2019-03-22T00:58:59.941Z,102617.98
2019-03-22T01:03:54.297Z,102622.59
2019-03-22T01:08:48.520Z,102622.48
2019-03-22T01:13:42.991Z,102618.95
2019-03-22T01:18:37.430Z,102612.79
2019-03-22T01:23:31.924Z,102607.86
2019-03-22T01:28:26.324Z,102595.27
2019-03-22T01:33:20.950Z,102597.65
2019-03-22T01:38:15.497Z,102597.25
2019-03-22T01:43:09.926Z,102588.79
2019-03-22T01:48:04.462Z,102591.94
2019-03-22T01:52:58.842Z,102592.37
2019-03-22T01:57:54.105Z,102599.92
2019-03-22T02:02:48.469Z,102604.19
2019-03-22T02:07:42.844Z,102600.70
2019-03-22T02:12:37.081Z,102601.27
2019-03-22T02:17:31.472Z,102592.17
2019-03-22T02:22:26.236Z,102591.98
2019-03-22T02:27:20.899Z,102580.46
2019-03-22T02:32:15.504Z,102577.53
2019-03-22T02:37:09.804Z,102577.09
2019-03-22T02:42:04.300Z,102578.28
2019-03-22T02:46:58.938Z,102570.20
2019-03-22T02:51:53.378Z,102567.22
2019-03-22T02:56:47.839Z,102566.48
2019-03-22T03:01:42.256Z,102566.48
2019-03-22T03:06:36.592Z,102568.53
2019-03-22T03:11:31.826Z,102568.40
2019-03-22T03:16:25.867Z,102571.33
2019-03-22T03:21:20.229Z,102571.23
2019-03-22T03:26:14.573Z,102569.19
2019-03-22T03:31:09.151Z,102560.99
2019-03-22T03:36:03.597Z,102559.33
2019-03-22T03:40:58.064Z,102562.70
2019-03-22T03:45:52.297Z,102550.58
2019-03-22T03:50:46.595Z,102548.84
2019-03-22T03:55:41.306Z,102553.91
2019-03-22T04:00:35.388Z,102554.53
2019-03-22T04:05:29.943Z,102560.49
2019-03-22T04:10:24.395Z,102563.97
2019-03-22T04:15:20.755Z,102563.91
2019-03-22T04:20:16.729Z,102557.55
2019-03-22T04:25:11.122Z,102560.22
2019-03-22T04:30:06.140Z,102562.88
2019-03-22T04:35:02.294Z,102560.52
2019-03-22T04:39:56.710Z,102559.75
2019-03-22T04:44:50.991Z,102561.56
2019-03-22T04:49:46.944Z,102561.81
2019-03-22T04:54:42.726Z,102563.22
2019-03-22T04:59:38.149Z,102563.79
2019-03-22T05:04:33.422Z,102562.81
2019-03-22T05:09:31.442Z,102560.92
2019-03-22T05:14:27.728Z,102566.81
2019-03-22T05:19:25.356Z,102568.78
2019-03-22T05:24:21.698Z,102571.20
2019-03-22T05:29:17.669Z,102575.22
2019-03-22T05:34:12.072Z,102577.12
2019-03-22T05:39:09.291Z,102576.27
2019-03-22T05:44:03.752Z,102565.42
2019-03-22T05:48:57.824Z,102568.27
2019-03-22T05:53:52.225Z,102563.59
2019-03-22T05:58:46.621Z,102555.95
2019-03-22T06:03:41.056Z,102558.75
2019-03-22T06:08:36.427Z,102564.40
2019-03-22T06:13:30.897Z,102572.27
2019-03-22T06:18:25.171Z,102571.34
2019-03-22T06:23:19.526Z,102576.78
2019-03-22T06:28:14.549Z,102575.31
2019-03-22T06:33:08.972Z,102574.70
2019-03-22T06:38:03.420Z,102566.70
2019-03-22T06:42:57.905Z,102568.00
2019-03-22T06:47:52.233Z,102572.86
2019-03-22T06:52:46.674Z,102584.11
2019-03-22T06:57:41.115Z,102575.44
2019-03-22T07:02:36.514Z,102571.92
2019-03-22T07:07:30.876Z,102572.69
2019-03-22T07:12:25.072Z,102569.37
2019-03-22T07:17:19.542Z,102570.66
2019-03-22T07:22:14.775Z,102576.73
2019-03-22T07:27:09.254Z,102575.07
2019-03-22T07:32:03.658Z,102575.47
2019-03-22T07:36:57.914Z,102581.69
2019-03-22T07:41:52.109Z,102577.18
2019-03-22T07:46:46.546Z,102573.13
2019-03-22T07:51:40.770Z,102571.99
2019-03-22T07:56:35.262Z,102572.14
2019-03-22T08:01:31.181Z,102565.81
2019-03-22T08:06:25.703Z,102561.56
2019-03-22T08:11:19.916Z,102557.26
2019-03-22T08:16:14.323Z,102552.38
2019-03-22T08:21:08.751Z,102556.48
2019-03-22T08:26:03.104Z,102543.83
2019-03-22T08:30:57.764Z,102546.13
2019-03-22T08:35:52.169Z,102546.85
2019-03-22T08:40:46.723Z,102544.19
2019-03-22T08:45:44.934Z,102535.98
2019-03-22T08:50:45.044Z,102531.91
2019-03-22T08:55:44.413Z,102532.68
2019-03-22T09:00:39.952Z,102534.09
2019-03-22T09:05:34.697Z,102534.28
2019-03-22T09:10:29.243Z,102531.19
2019-03-22T09:15:40.744Z,102526.56
2019-03-22T09:20:27.434Z,102510.63
2019-03-22T09:25:22.804Z,102510.13
2019-03-22T09:30:17.443Z,102509.16
2019-03-22T09:35:12.276Z,102493.23
2019-03-22T09:40:11.617Z,102504.14
2019-03-22T09:45:07.524Z,102501.45
2019-03-22T09:50:04.519Z,102503.81
2019-03-22T09:55:12.233Z,102497.63
2019-03-22T09:59:55.705Z,102503.23
2019-03-22T10:04:50.514Z,102505.54
2019-03-22T10:09:45.029Z,102488.18
2019-03-22T10:14:39.470Z,102478.59
2019-03-22T10:19:34.063Z,102477.58
2019-03-22T10:24:28.584Z,102469.77
2019-03-22T10:29:23.179Z,102465.33
2019-03-22T10:34:17.753Z,102452.42
2019-03-22T10:39:14.639Z,102446.59
2019-03-22T10:44:09.511Z,102438.98
2019-03-22T10:49:04.087Z,102431.12
2019-03-22T10:53:58.570Z,102434.75
2019-03-22T10:58:53.161Z,102426.68
2019-03-22T11:03:47.648Z,102428.77
2019-03-22T11:08:42.288Z,102413.81
2019-03-22T11:13:38.398Z,102406.58
2019-03-22T11:18:37.509Z,102402.21
2019-03-22T11:23:30.069Z,102394.45
2019-03-22T11:28:25.417Z,102393.50
2019-03-22T11:33:21.654Z,102378.59
2019-03-22T11:38:15.871Z,102374.12
2019-03-22T11:43:10.558Z,102368.00
2019-03-22T11:48:04.983Z,102361.32
2019-03-22T11:52:59.463Z,102354.87
2019-03-22T11:57:55.709Z,102354.72
2019-03-22T12:02:50.105Z,102351.59
2019-03-22T12:07:46.014Z,102341.05
2019-03-22T12:12:40.532Z,102333.33
2019-03-22T12:17:34.966Z,102327.67
2019-03-22T12:22:29.570Z,102312.12
2019-03-22T12:27:24.965Z,102302.92
2019-03-22T12:32:19.476Z,102294.14
2019-03-22T12:37:14.046Z,102277.53
2019-03-22T12:42:08.624Z,102265.66
2019-03-22T12:47:03.099Z,102264.94
2019-03-22T12:51:57.691Z,102256.14
2019-03-22T12:56:51.936Z,102234.91
2019-03-22T13:01:47.331Z,102235.31
2019-03-22T13:06:41.818Z,102223.72
2019-03-22T13:11:36.546Z,102212.19
2019-03-22T13:16:30.875Z,102203.59
2019-03-22T13:21:25.038Z,102198.70
2019-03-22T13:26:19.445Z,102191.19
2019-03-22T13:31:14.966Z,102187.43
2019-03-22T13:36:09.477Z,102183.90
2019-03-22T13:41:05.197Z,102178.03
2019-03-22T13:45:59.808Z,102162.39
2019-03-22T13:51:17.906Z,102153.29
2019-03-22T13:56:12.658Z,102147.33
2019-03-22T14:01:06.940Z,102140.89
2019-03-22T14:06:01.197Z,102140.59
2019-03-22T14:10:55.793Z,102138.55
2019-03-22T14:15:50.184Z,102130.84
2019-03-22T14:20:44.793Z,102129.24
2019-03-22T14:25:39.285Z,102125.41
2019-03-22T14:30:33.581Z,102116.96
2019-03-22T14:35:31.268Z,102115.52
2019-03-22T14:40:25.767Z,102109.00
2019-03-22T14:45:21.835Z,102096.64
2019-03-22T14:50:16.232Z,102090.74
2019-03-22T14:55:11.104Z,102086.59
2019-03-22T15:00:05.931Z,102085.66
2019-03-22T15:04:59.938Z,102086.01
2019-03-22T15:09:54.010Z,102076.24
2019-03-22T15:15:08.080Z,102075.13
2019-03-22T15:20:21.946Z,102063.49
2019-03-22T15:25:39.075Z,102054.28
2019-03-22T15:30:49.365Z,102057.41
2019-03-22T15:36:15.588Z,102051.19
2019-03-22T15:41:10.185Z,102049.51
2019-03-22T15:46:04.229Z,102045.58
2019-03-22T15:50:58.569Z,102042.19
2019-03-22T15:55:52.986Z,102042.25
2019-03-22T16:00:47.033Z,102035.94
2019-03-22T16:05:41.696Z,102042.59
2019-03-22T16:10:35.790Z,102039.49
2019-03-22T16:15:30.192Z,102036.52
2019-03-22T16:20:24.201Z,102035.44
2019-03-22T16:25:18.277Z,102034.67
2019-03-22T16:30:12.879Z,102036.08
2019-03-22T16:35:07.667Z,102032.30
2019-03-22T16:40:04.564Z,102026.89
2019-03-22T16:44:59.142Z,102026.48
2019-03-22T16:49:53.301Z,102030.23
2019-03-22T16:54:47.448Z,102031.27
2019-03-22T16:59:41.491Z,102031.91
2019-03-22T17:04:35.976Z,102028.20
2019-03-22T17:09:30.047Z,102027.19
2019-03-22T17:14:24.396Z,102033.15
2019-03-22T17:19:18.754Z,102030.47
2019-03-22T17:24:13.242Z,102031.28
2019-03-22T17:29:07.714Z,102028.56
2019-03-22T17:34:02.174Z,102024.87
2019-03-22T17:38:56.773Z,102032.20
2019-03-22T17:43:50.974Z,102033.72
2019-03-22T17:48:45.340Z,102032.97
2019-03-22T17:53:39.676Z,102038.23
2019-03-22T17:58:35.645Z,102044.91
2019-03-22T18:03:30.206Z,102038.41
2019-03-22T18:08:24.509Z,102041.88
2019-03-22T18:13:18.976Z,102052.66
2019-03-22T18:18:14.678Z,102050.94
2019-03-22T18:23:10.775Z,102056.28
2019-03-22T18:28:06.019Z,102056.77
2019-03-22T18:33:00.498Z,102065.95
2019-03-22T18:37:54.774Z,102074.23
2019-03-22T18:42:49.201Z,102076.28
2019-03-22T18:47:43.791Z,102081.91
2019-03-22T18:52:40.082Z,102078.80
2019-03-22T18:57:34.480Z,102088.86
2019-03-22T19:02:28.611Z,102090.91
2019-03-22T19:07:22.985Z,102093.04
2019-03-22T19:12:17.315Z,102100.94
2019-03-22T19:17:11.715Z,102093.92
2019-03-22T19:22:05.644Z,102092.12
2019-03-22T19:26:59.738Z,102091.89
2019-03-22T19:31:53.838Z,102087.30
2019-03-22T19:36:48.273Z,102095.41
2019-03-22T19:41:42.800Z,102097.82
2019-03-22T19:46:37.110Z,102093.30
2019-03-22T19:51:31.141Z,102097.56
2019-03-22T19:56:25.724Z,102102.62
2019-03-22T20:01:19.768Z,102111.55
2019-03-22T20:06:14.429Z,102111.44
2019-03-22T20:11:08.823Z,102109.55
2019-03-22T20:16:03.347Z,102110.77
2019-03-22T20:20:57.662Z,102115.20
2019-03-22T20:25:52.437Z,102113.06
2019-03-22T20:30:48.465Z,102115.91
2019-03-22T20:35:42.990Z,102108.39
2019-03-22T20:40:37.135Z,102110.48
2019-03-22T20:45:31.174Z,102110.47
2019-03-22T20:50:35.178Z,102112.88
2019-03-22T20:55:21.247Z,102105.77
2019-03-22T21:00:15.517Z,102107.72
2019-03-22T21:05:09.648Z,102103.64
2019-03-22T21:10:04.003Z,102103.24
2019-03-22T21:14:58.190Z,102105.30
2019-03-22T21:19:52.321Z,102102.78
2019-03-22T21:24:46.335Z,102104.23
2019-03-22T21:29:44.341Z,102106.20
2019-03-22T21:34:36.307Z,102110.59
2019-03-22T21:39:30.578Z,102109.48
2019-03-22T21:44:25.296Z,102113.86
2019-03-22T21:49:19.538Z,102117.52
2019-03-22T21:54:14.464Z,102116.09
2019-03-22T21:59:08.676Z,102115.92
2019-03-22T22:04:03.054Z,102113.20
2019-03-22T22:08:59.176Z,102110.92
2019-03-22T22:13:53.683Z,102113.44
2019-03-22T22:18:48.241Z,102117.48
2019-03-22T22:23:42.870Z,102105.57
2019-03-22T22:28:37.350Z,102107.07
2019-03-22T22:33:32.197Z,102118.34
2019-03-22T22:38:26.539Z,102121.36
2019-03-22T22:43:21.004Z,102119.45
2019-03-22T22:48:15.607Z,102119.38
2019-03-22T22:53:09.905Z,102126.20
2019-03-22T22:58:04.360Z,102130.47
2019-03-22T23:03:07.706Z,102123.47
2019-03-22T23:08:02.063Z,102123.28
2019-03-22T23:12:56.559Z,102123.77
2019-03-22T23:17:51.959Z,102127.76
2019-03-22T23:22:46.246Z,102127.17
2019-03-22T23:27:40.682Z,102124.33
2019-03-22T23:32:37.191Z,102127.84
2019-03-22T23:37:32.771Z,102133.53
2019-03-22T23:42:27.244Z,102137.52
2019-03-22T23:47:21.656Z,102141.77
2019-03-22T23:52:16.134Z,102143.73
2019-03-22T23:57:10.467Z,102143.36
